Time;durP1;ratioP1;P1;durP2;ratioP2;P2;SDS_P1;SDS_P2;PMS_P1;PMS_P2;Temp;Humidity;BMP_temperature;BMP_pressure;BME280_temperature;BME280_humidity;BME280_pressure;Samples;Min_cycle;Max_cycle;Signal;HPM_P1;HPM_P2
2020/12/21 00:02:05;;;;;;;5.13;4.72;;;8.80;99.90;;;;;;6219522;23;20202;-83
2020/12/21 00:04:32;;;;;;;5.57;5.00;;;8.90;99.90;;;;;;6219699;23;20202;-83
2020/12/21 00:06:59;;;;;;;5.28;4.78;;;8.90;99.90;;;;;;6219337;23;20193;-84
2020/12/21 00:09:25;;;;;;;6.75;5.57;;;8.90;99.90;;;;;;6219180;23;20248;-83
2020/12/21 00:11:52;;;;;;;4.88;4.47;;;8.90;99.90;;;;;;6219713;23;20185;-83
2020/12/21 00:14:19;;;;;;;5.43;5.03;;;9.00;99.90;;;;;;6219282;23;20213;-83
2020/12/21 00:16:49;;;;;;;6.88;5.80;;;8.90;99.90;;;;;;6220068;23;20177;-83
2020/12/21 00:19:18;;;;;;;5.72;4.97;;;8.90;99.90;;;;;;6220815;23;20220;-83
2020/12/21 00:21:46;;;;;;;4.90;4.50;;;8.90;99.90;;;;;;6219557;23;20202;-83
2020/12/21 00:24:12;;;;;;;4.93;4.55;;;8.90;99.90;;;;;;6219149;23;20205;-82
2020/12/21 00:26:43;;;;;;;5.60;5.20;;;8.90;99.90;;;;;;6219187;23;20228;-81
2020/12/21 00:29:09;;;;;;;6.03;5.47;;;8.90;99.90;;;;;;6220161;23;20174;-83
2020/12/21 00:31:36;;;;;;;5.60;4.78;;;8.90;99.90;;;;;;6219027;23;20250;-82
2020/12/21 00:34:05;;;;;;;5.13;4.65;;;8.90;99.90;;;;;;6220188;23;20197;-82
2020/12/21 00:36:32;;;;;;;4.38;3.97;;;8.90;99.90;;;;;;6219198;23;20190;-83
2020/12/21 00:38:58;;;;;;;3.97;3.50;;;8.90;99.90;;;;;;6218711;23;20510;-83
2020/12/21 00:41:25;;;;;;;4.53;4.13;;;8.90;99.90;;;;;;6219174;23;20185;-83
2020/12/21 00:43:52;;;;;;;4.07;3.47;;;8.90;99.90;;;;;;6219837;23;20577;-83
2020/12/21 00:46:19;;;;;;;5.18;4.68;;;8.90;99.90;;;;;;6219333;23;20194;-83
2020/12/21 00:48:47;;;;;;;4.15;3.85;;;8.80;99.90;;;;;;6219638;23;20190;-83
2020/12/21 00:51:14;;;;;;;4.35;3.95;;;8.80;99.90;;;;;;6219352;23;20201;-83
2020/12/21 00:53:40;;;;;;;6.20;3.88;;;8.80;99.90;;;;;;6219215;23;20205;-83
2020/12/21 00:56:07;;;;;;;3.67;3.47;;;8.80;99.90;;;;;;6221280;23;20173;-82
2020/12/21 00:58:35;;;;;;;3.22;3.00;;;8.70;99.90;;;;;;6222822;23;20518;-83
2020/12/21 01:01:04;;;;;;;3.65;3.35;;;8.80;99.90;;;;;;6221476;23;20260;-82
2020/12/21 01:03:30;;;;;;;3.60;3.30;;;8.80;99.90;;;;;;6222897;23;20206;-83
2020/12/21 01:05:57;;;;;;;3.28;3.08;;;8.70;99.90;;;;;;6223385;23;20182;-83
2020/12/21 01:08:23;;;;;;;3.03;2.83;;;8.70;99.90;;;;;;6222044;23;20185;-83
2020/12/21 01:10:49;;;;;;;4.15;3.47;;;8.70;99.90;;;;;;6223067;23;20181;-83
2020/12/21 01:13:16;;;;;;;4.40;4.00;;;8.70;99.90;;;;;;6221981;23;20292;-83
2020/12/21 01:15:42;;;;;;;4.07;3.78;;;8.70;99.90;;;;;;6222824;23;20189;-83
2020/12/21 01:18:08;;;;;;;4.82;4.53;;;8.70;99.90;;;;;;6222137;23;20186;-83
2020/12/21 01:20:35;;;;;;;4.20;3.80;;;8.70;99.90;;;;;;6221724;23;20182;-83
2020/12/21 01:23:02;;;;;;;7.25;4.40;;;8.80;99.90;;;;;;6221049;23;20214;-83
2020/12/21 01:25:28;;;;;;;4.00;3.58;;;8.80;99.90;;;;;;6222370;23;20216;-83
2020/12/21 01:27:54;;;;;;;2.72;2.53;;;8.80;99.90;;;;;;6223984;23;20239;-83
2020/12/21 01:30:20;;;;;;;4.50;4.10;;;8.80;99.90;;;;;;6223674;23;20179;-82
2020/12/21 01:32:46;;;;;;;3.70;3.40;;;8.80;99.90;;;;;;6222441;23;20174;-83
2020/12/21 01:35:13;;;;;;;3.67;3.38;;;8.80;99.90;;;;;;6223468;23;20576;-83
2020/12/21 01:37:39;;;;;;;3.80;3.55;;;8.80;99.90;;;;;;6223571;23;20178;-83
2020/12/21 01:40:07;;;;;;;3.33;3.03;;;8.80;99.90;;;;;;6222525;23;20179;-83
2020/12/21 01:42:34;;;;;;;5.40;3.45;;;8.80;99.90;;;;;;6222668;23;20194;-83
2020/12/21 01:45:00;;;;;;;4.28;3.90;;;8.70;99.90;;;;;;6222638;23;20205;-82
2020/12/21 01:47:27;;;;;;;3.95;3.60;;;8.70;99.90;;;;;;6223642;23;20541;-83
2020/12/21 01:49:53;;;;;;;3.78;3.47;;;8.60;99.90;;;;;;6227006;23;20529;-83
2020/12/21 01:52:19;;;;;;;5.32;4.47;;;8.60;99.90;;;;;;6226035;23;20185;-83
2020/12/21 01:54:47;;;;;;;5.78;5.28;;;8.50;99.90;;;;;;6225026;23;20205;-82
2020/12/21 01:57:14;;;;;;;5.18;4.78;;;8.40;99.90;;;;;;6221879;23;20181;-83
2020/12/21 01:59:41;;;;;;;6.50;5.05;;;8.30;99.90;;;;;;6222807;23;20178;-83
2020/12/21 02:02:08;;;;;;;6.88;6.07;;;8.30;99.90;;;;;;6221896;23;20280;-83
2020/12/21 02:04:35;;;;;;;5.10;4.60;;;8.20;99.90;;;;;;6222258;23;20197;-82
2020/12/21 02:07:01;;;;;;;6.50;5.43;;;8.10;99.90;;;;;;6221714;23;20193;-83
2020/12/21 02:09:28;;;;;;;6.25;5.70;;;8.10;99.90;;;;;;6221931;23;20212;-83
2020/12/21 02:11:55;;;;;;;5.10;4.70;;;8.10;99.90;;;;;;6222185;23;20181;-83
2020/12/21 02:14:22;;;;;;;8.30;5.47;;;8.00;99.90;;;;;;6222664;23;20274;-83
2020/12/21 02:16:49;;;;;;;6.60;6.10;;;8.00;99.90;;;;;;6221616;23;20236;-83
2020/12/21 02:19:15;;;;;;;4.80;4.40;;;8.00;99.90;;;;;;6222456;23;20700;-83
2020/12/21 02:21:42;;;;;;;5.20;4.80;;;8.00;99.90;;;;;;6221674;23;20229;-83
2020/12/21 02:24:08;;;;;;;5.18;4.40;;;8.00;99.90;;;;;;6222387;23;20209;-83
2020/12/21 02:26:34;;;;;;;5.53;5.00;;;8.00;99.90;;;;;;6221602;23;20186;-83
2020/12/21 02:29:00;;;;;;;6.05;5.30;;;8.00;99.90;;;;;;6222231;23;20646;-83
2020/12/21 02:31:27;;;;;;;5.50;5.10;;;8.00;99.90;;;;;;6220863;23;20189;-83
2020/12/21 02:33:54;;;;;;;5.93;5.43;;;8.00;99.90;;;;;;6221862;23;20197;-83
2020/12/21 02:36:20;;;;;;;6.20;5.70;;;8.00;99.90;;;;;;6222477;23;20181;-84
2020/12/21 02:38:47;;;;;;;7.38;6.68;;;8.00;99.90;;;;;;6221512;23;20205;-83
2020/12/21 02:41:15;;;;;;;7.38;6.78;;;7.90;99.90;;;;;;6221826;23;20178;-83
2020/12/21 02:43:41;;;;;;;7.50;6.82;;;7.90;99.90;;;;;;6222345;23;20209;-83
2020/12/21 02:46:07;;;;;;;6.10;5.50;;;7.90;99.90;;;;;;6222679;23;20182;-83
2020/12/21 02:48:34;;;;;;;7.40;6.70;;;7.80;99.90;;;;;;6226974;23;20189;-83
2020/12/21 02:51:01;;;;;;;7.18;6.65;;;7.80;99.90;;;;;;6230276;23;20185;-83
2020/12/21 02:53:27;;;;;;;7.15;6.65;;;7.70;99.90;;;;;;6229859;23;20198;-82
2020/12/21 02:55:54;;;;;;;7.70;5.93;;;7.70;99.90;;;;;;6228181;23;20526;-82
2020/12/21 02:58:21;;;;;;;8.20;7.50;;;7.60;99.90;;;;;;6221928;23;20520;-83
2020/12/21 03:00:47;;;;;;;9.02;7.57;;;7.50;99.90;;;;;;6221393;23;20182;-84
2020/12/21 03:03:14;;;;;;;8.93;8.18;;;7.40;99.90;;;;;;6221287;23;20201;-82
2020/12/21 03:05:40;;;;;;;7.13;6.40;;;7.40;99.90;;;;;;6221543;23;20185;-83
2020/12/21 03:08:08;;;;;;;9.43;8.57;;;7.30;99.90;;;;;;6232079;23;20196;-83
2020/12/21 03:10:36;;;;;;;9.35;8.23;;;7.30;99.90;;;;;;6240644;23;20173;-81
2020/12/21 03:13:03;;;;;;;9.18;7.38;;;7.20;99.90;;;;;;6230758;23;20181;-83
2020/12/21 03:15:30;;;;;;;7.75;7.15;;;7.20;99.90;;;;;;6221327;23;20197;-82
2020/12/21 03:17:56;;;;;;;8.02;7.35;;;7.20;99.90;;;;;;6222438;23;20182;-83
2020/12/21 03:20:22;;;;;;;8.32;7.25;;;7.10;99.90;;;;;;6221925;23;20181;-83
2020/12/21 03:22:48;;;;;;;7.75;7.15;;;7.10;99.90;;;;;;6219972;23;20240;-83
2020/12/21 03:25:15;;;;;;;11.85;10.35;;;7.00;99.90;;;;;;6194684;23;20211;-84
2020/12/21 03:27:42;;;;;;;8.15;7.45;;;7.00;99.90;;;;;;6196566;23;20249;-84
2020/12/21 03:30:10;;;;;;;8.23;7.53;;;6.90;99.90;;;;;;6195270;23;20179;-84
2020/12/21 03:32:36;;;;;;;11.40;7.60;;;6.80;99.90;;;;;;6195356;23;20201;-84
2020/12/21 03:35:04;;;;;;;7.65;6.95;;;6.80;99.90;;;;;;6194257;23;20253;-84
2020/12/21 03:37:32;;;;;;;9.02;7.85;;;6.80;99.90;;;;;;6194850;23;20182;-84
2020/12/21 03:39:58;;;;;;;8.93;8.15;;;6.80;99.90;;;;;;6194929;23;20656;-84
2020/12/21 03:42:25;;;;;;;9.80;8.90;;;6.70;99.90;;;;;;6198046;23;20262;-83
2020/12/21 03:44:51;;;;;;;9.27;8.40;;;6.70;99.90;;;;;;6196209;23;20206;-84
2020/12/21 03:47:18;;;;;;;8.75;7.95;;;6.60;99.90;;;;;;6195385;23;20178;-84
2020/12/21 03:49:45;;;;;;;11.85;8.02;;;6.60;99.90;;;;;;6196406;23;20182;-83
2020/12/21 03:52:11;;;;;;;8.35;7.63;;;6.60;99.90;;;;;;6195122;23;20179;-84
2020/12/21 03:58:24;;;;;;;8.23;7.18;;;6.50;99.90;;;;;;6186944;23;20181;-83
2020/12/21 04:07:45;;;;;;;9.35;8.35;;;6.30;99.90;;;;;;6158414;23;20218;-84
2020/12/21 04:10:14;;;;;;;7.45;6.78;;;6.30;99.90;;;;;;6158064;23;20195;-84
2020/12/21 04:13:40;;;;;;;8.50;6.50;;;6.30;99.90;;;;;;6154383;23;20530;-84
2020/12/21 04:22:12;;;;;;;7.68;6.88;;;6.20;99.90;;;;;;6158046;23;20190;-84
2020/12/21 04:24:41;;;;;;;6.90;6.18;;;6.20;99.90;;;;;;6176630;23;20206;-84
2020/12/21 04:27:07;;;;;;;8.68;7.88;;;6.20;99.90;;;;;;6187822;23;20189;-83
2020/12/21 04:29:33;;;;;;;8.35;7.15;;;6.20;99.90;;;;;;6188245;23;20193;-83
2020/12/21 04:31:59;;;;;;;12.13;8.70;;;6.20;99.90;;;;;;6188264;23;20182;-84
2020/12/21 04:34:26;;;;;;;9.43;8.52;;;6.20;99.90;;;;;;6188283;23;20685;-82
2020/12/21 04:36:52;;;;;;;10.32;9.38;;;6.20;99.90;;;;;;6188674;23;20179;-84
2020/12/21 04:39:21;;;;;;;10.27;8.60;;;6.30;99.90;;;;;;6187924;23;20658;-83
2020/12/21 04:41:53;;;;;;;13.20;9.02;;;6.30;99.90;;;;;;6187160;23;20182;-84
2020/12/21 04:44:20;;;;;;;10.38;8.63;;;6.30;99.90;;;;;;6187627;23;20202;-83
2020/12/21 04:46:48;;;;;;;10.27;8.35;;;6.40;99.90;;;;;;6188017;23;20183;-84
2020/12/21 04:49:16;;;;;;;10.40;8.52;;;6.40;99.90;;;;;;6187412;23;20245;-84
2020/12/21 04:51:45;;;;;;;10.18;9.20;;;6.40;99.90;;;;;;6187721;23;20229;-84
2020/12/21 04:54:12;;;;;;;13.60;9.05;;;6.40;99.90;;;;;;6187180;23;20566;-84
2020/12/21 04:56:39;;;;;;;12.43;10.10;;;6.40;99.90;;;;;;6189425;23;20262;-84
2020/12/21 04:59:06;;;;;;;11.98;9.95;;;6.30;99.90;;;;;;6189712;23;20214;-84
2020/12/21 05:01:32;;;;;;;11.13;10.13;;;6.30;99.90;;;;;;6190185;23;20498;-84
2020/12/21 05:03:58;;;;;;;11.38;10.32;;;6.30;99.90;;;;;;6189319;23;20209;-84
2020/12/21 05:06:24;;;;;;;15.38;12.82;;;6.30;99.90;;;;;;6189074;23;20175;-83
2020/12/21 05:09:02;;;;;;;12.55;11.25;;;6.20;99.90;;;;;;6190154;23;20183;-84
2020/12/21 05:11:30;;;;;;;13.77;12.43;;;6.20;99.90;;;;;;6202332;23;20250;-83
2020/12/21 05:14:08;;;;;;;12.52;11.43;;;6.30;99.90;;;;;;6201903;23;20214;-84
2020/12/21 05:16:35;;;;;;;14.15;12.90;;;6.20;99.90;;;;;;6202629;23;20545;-84
2020/12/21 05:19:02;;;;;;;13.18;11.98;;;6.20;99.90;;;;;;6201608;23;20198;-83
2020/12/21 05:21:31;;;;;;;13.82;12.35;;;6.20;99.90;;;;;;6201406;23;20256;-83
2020/12/21 05:23:59;;;;;;;12.57;11.38;;;6.20;99.90;;;;;;6202575;23;20250;-83
2020/12/21 05:26:30;;;;;;;11.70;10.35;;;6.20;99.90;;;;;;6202483;23;20190;-83
2020/12/21 05:28:57;;;;;;;12.88;11.48;;;6.20;99.90;;;;;;6200582;23;20190;-83
2020/12/21 05:31:28;;;;;;;11.50;10.30;;;6.10;99.90;;;;;;6201439;23;20206;-83
2020/12/21 05:33:54;;;;;;;11.10;10.10;;;6.10;99.90;;;;;;6201239;23;20197;-83
2020/12/21 05:36:23;;;;;;;11.32;10.43;;;6.10;99.90;;;;;;6201156;23;20549;-83
2020/12/21 05:38:56;;;;;;;13.25;11.98;;;6.10;99.90;;;;;;6200621;23;20237;-83
2020/12/21 05:41:23;;;;;;;11.15;10.15;;;6.00;99.90;;;;;;6201652;23;20182;-83
2020/12/21 05:43:52;;;;;;;12.38;10.90;;;6.10;99.90;;;;;;6201068;23;20288;-83
2020/12/21 05:46:19;;;;;;;11.13;9.05;;;6.10;99.90;;;;;;6201064;23;20176;-83
2020/12/21 05:48:51;;;;;;;10.60;9.68;;;6.00;99.90;;;;;;6200913;23;20626;-83
2020/12/21 05:51:23;;;;;;;11.73;10.73;;;6.10;99.90;;;;;;6201209;23;20226;-85
2020/12/21 05:53:52;;;;;;;13.20;10.50;;;6.10;99.90;;;;;;6200925;23;20194;-83
2020/12/21 05:56:20;;;;;;;11.38;10.27;;;6.10;99.90;;;;;;6200238;23;20234;-83
2020/12/21 05:58:47;;;;;;;11.68;10.35;;;6.10;99.90;;;;;;6201221;23;20263;-83
2020/12/21 06:01:14;;;;;;;10.82;9.82;;;6.10;99.90;;;;;;6200721;23;20596;-83
2020/12/21 06:03:47;;;;;;;10.32;9.52;;;6.10;99.90;;;;;;6200884;23;20253;-83
2020/12/21 06:06:19;;;;;;;12.05;10.98;;;6.10;99.90;;;;;;6201062;23;20177;-83
2020/12/21 06:08:49;;;;;;;9.98;9.05;;;6.10;99.90;;;;;;6200321;23;20178;-83
2020/12/21 06:11:21;;;;;;;11.05;10.05;;;6.10;99.90;;;;;;6200597;23;20213;-83
2020/12/21 06:13:55;;;;;;;11.00;10.10;;;6.10;99.90;;;;;;6201158;23;20194;-83
2020/12/21 06:16:26;;;;;;;10.38;9.45;;;6.10;99.90;;;;;;6200757;23;20181;-83
2020/12/21 06:19:04;;;;;;;10.88;9.95;;;6.00;99.90;;;;;;6201410;23;20175;-83
2020/12/21 06:21:34;;;;;;;10.43;9.52;;;6.00;99.90;;;;;;6199488;23;20189;-83
2020/12/21 06:24:04;;;;;;;11.07;10.07;;;6.00;99.90;;;;;;6200540;23;20206;-83
2020/12/21 06:26:35;;;;;;;9.90;9.00;;;6.00;99.90;;;;;;6200898;23;20488;-83
2020/12/21 06:29:08;;;;;;;9.25;8.35;;;5.90;99.90;;;;;;6200281;23;20190;-83
2020/12/21 06:31:44;;;;;;;11.23;9.60;;;5.90;99.90;;;;;;6199869;23;20179;-83
2020/12/21 06:34:14;;;;;;;9.70;8.75;;;5.90;99.90;;;;;;6199830;23;20197;-83
2020/12/21 06:36:41;;;;;;;9.63;8.80;;;5.90;99.90;;;;;;6200403;23;20175;-83
2020/12/21 06:39:09;;;;;;;11.32;10.15;;;5.90;99.90;;;;;;6201220;23;20188;-83
2020/12/21 06:41:35;;;;;;;12.23;11.25;;;5.90;99.90;;;;;;6199436;23;20506;-83
2020/12/21 06:44:04;;;;;;;10.85;9.68;;;5.90;99.90;;;;;;6200402;23;20286;-84
2020/12/21 06:46:32;;;;;;;15.30;13.80;;;5.90;99.90;;;;;;6200012;23;20744;-83
2020/12/21 06:49:08;;;;;;;14.65;12.45;;;5.80;99.90;;;;;;6200101;23;20185;-83
2020/12/21 06:51:39;;;;;;;13.43;12.13;;;5.80;99.90;;;;;;6200224;23;20162;-83
2020/12/21 06:54:06;;;;;;;19.55;14.90;;;5.80;99.90;;;;;;6200394;23;20195;-83
2020/12/21 06:56:33;;;;;;;22.23;18.67;;;5.80;99.90;;;;;;6200012;23;20222;-83
2020/12/21 06:59:01;;;;;;;18.55;16.52;;;5.80;99.90;;;;;;6199344;23;20181;-83
2020/12/21 07:01:29;;;;;;;15.80;13.90;;;5.80;99.90;;;;;;6199870;23;20229;-83
2020/12/21 07:04:02;;;;;;;16.17;13.82;;;5.70;99.90;;;;;;6198694;23;20205;-84
2020/12/21 07:06:29;;;;;;;19.98;15.73;;;5.70;99.90;;;;;;6196294;23;20168;-83
2020/12/21 07:08:59;;;;;;;20.58;18.38;;;5.70;99.90;;;;;;6198365;23;20183;-83
2020/12/21 07:11:26;;;;;;;14.75;13.45;;;5.70;99.90;;;;;;6198331;23;20189;-83
2020/12/21 07:13:52;;;;;;;13.48;12.27;;;5.80;99.90;;;;;;6198576;23;20209;-83
2020/12/21 07:16:19;;;;;;;9.07;8.27;;;5.80;99.90;;;;;;6198895;23;20183;-84
2020/12/21 08:26:13;;;;;;;12.20;11.20;;;6.20;99.90;;;;;;5817741;24;20713;-83
2020/12/21 08:29:02;;;;;;;12.07;10.20;;;6.20;99.90;;;;;;6091995;23;20184;-83
2020/12/21 08:31:58;;;;;;;9.98;8.98;;;6.30;99.90;;;;;;6192190;23;20177;-83
2020/12/21 09:39:13;;;;;;;10.02;9.02;;;8.30;99.90;;;;;;6135320;23;20217;-87
2020/12/21 10:26:16;;;;;;;8.35;7.65;;;9.40;99.90;;;;;;6172819;23;20193;-81
2020/12/21 10:28:57;;;;;;;6.88;6.25;;;9.40;99.90;;;;;;6172922;23;20191;-82
2020/12/21 10:38:55;;;;;;;;;;;;;;;;;;;;;
2020/12/21 10:42:23;;;;;;;;;;;;;;;;;;;;;
2020/12/21 10:45:32;;;;;;;5.65;5.15;;;9.40;99.90;;;;;;6055000;23;20204;-84
2020/12/21 10:48:12;;;;;;;6.20;5.70;;;9.40;99.90;;;;;;6053834;23;20192;-85
2020/12/21 10:51:07;;;;;;;6.65;6.05;;;9.30;99.90;;;;;;6099979;23;20236;-83
2020/12/21 10:53:43;;;;;;;7.05;5.50;;;9.30;99.90;;;;;;6143446;23;20196;-84
2020/12/21 10:59:16;;;;;;;5.22;4.72;;;9.30;99.90;;;;;;6142529;23;20253;-85
2020/12/21 11:02:36;;;;;;;5.03;4.47;;;9.20;99.90;;;;;;6142731;23;20185;-84
2020/12/21 11:05:56;;;;;;;8.32;5.10;;;9.30;99.90;;;;;;6142200;23;20207;-84
2020/12/21 11:19:01;;;;;;;6.93;5.07;;;9.40;99.90;;;;;;5988614;24;20200;-86
2020/12/21 11:28:08;;;;;;;5.00;4.35;;;9.50;99.90;;;;;;6136493;23;20192;-85
2020/12/21 11:36:58;;;;;;;4.40;4.07;;;9.60;99.90;;;;;;6139828;23;20415;-84
2020/12/21 11:43:20;;;;;;;4.20;3.63;;;9.50;99.90;;;;;;6118024;23;20304;-85
2020/12/21 11:49:20;;;;;;;3.33;3.13;;;9.40;99.90;;;;;;6137278;23;20184;-85
2020/12/21 11:52:17;;;;;;;;;;;;;;;;;;;;;
2020/12/21 11:54:59;;;;;;;4.20;3.80;;;9.30;99.90;;;;;;6142260;23;20211;-85
2020/12/21 11:58:04;;;;;;;4.13;3.83;;;9.20;99.90;;;;;;6142318;23;20172;-84
2020/12/21 12:01:10;;;;;;;4.65;4.25;;;9.20;99.90;;;;;;6142068;23;20217;-85
2020/12/21 12:04:02;;;;;;;5.18;4.72;;;9.20;99.90;;;;;;6141330;23;20205;-85
2020/12/21 12:07:12;;;;;;;6.15;4.95;;;9.20;99.90;;;;;;6141514;23;20183;-85
2020/12/21 12:09:50;;;;;;;4.97;4.57;;;9.10;99.90;;;;;;6050261;23;20181;-85
2020/12/21 12:12:38;;;;;;;5.38;4.95;;;9.10;99.90;;;;;;6051925;23;20206;-85
2020/12/21 12:15:14;;;;;;;6.13;4.88;;;9.20;99.90;;;;;;6141539;23;20200;-85
2020/12/21 12:17:58;;;;;;;3.50;3.20;;;9.20;99.90;;;;;;6141413;23;20169;-85
2020/12/21 12:20:56;;;;;;;3.10;2.80;;;9.30;99.90;;;;;;6141235;23;20184;-85
2020/12/21 12:33:07;;;;;;;6.63;3.83;;;9.50;99.90;;;;;;6051399;23;20331;-85
2020/12/21 12:36:29;;;;;;;3.20;3.00;;;9.50;99.90;;;;;;6052302;23;20205;-85
2020/12/21 12:39:10;;;;;;;;;;;;;;;;;;;;;
2020/12/21 12:42:03;;;;;;;3.03;2.83;;;9.40;99.90;;;;;;6060107;23;20181;-85
2020/12/21 12:45:11;;;;;;;5.07;3.70;;;9.50;99.90;;;;;;6141618;23;20203;-85
2020/12/21 12:55:01;;;;;;;2.50;2.30;;;9.90;99.90;;;;;;5831003;24;20195;-85
2020/12/21 13:01:33;;;;;;;3.30;3.00;;;10.10;99.90;;;;;;5861319;24;20184;-85
2020/12/21 13:07:30;;;;;;;3.20;3.00;;;10.30;99.90;;;;;;6137001;23;20172;-84
2020/12/21 13:33:14;;;;;;;8.37;5.70;;;10.50;99.90;;;;;;5715765;24;20341;-85
2020/12/21 13:39:14;;;;;;;7.30;5.95;;;10.30;99.90;;;;;;6106445;23;20188;-85
2020/12/21 13:41:49;;;;;;;8.25;6.53;;;10.30;99.90;;;;;;6143640;23;20499;-85
2020/12/21 13:44:24;;;;;;;6.50;5.90;;;10.30;99.90;;;;;;6144170;23;20207;-85
2020/12/21 13:46:58;;;;;;;7.30;6.60;;;10.20;99.90;;;;;;6143841;23;20196;-85
2020/12/21 13:49:47;;;;;;;8.90;8.15;;;10.20;99.90;;;;;;6144684;23;20186;-85
2020/12/21 13:59:14;;;;;;;10.23;9.32;;;10.10;99.90;;;;;;6142685;23;20221;-86
2020/12/21 14:02:14;;;;;;;10.77;9.70;;;10.10;99.90;;;;;;6143116;23;20180;-85
2020/12/21 14:05:14;;;;;;;10.35;9.35;;;10.10;99.90;;;;;;6143586;23;20518;-85
2020/12/21 14:14:33;;;;;;;8.20;7.40;;;10.10;99.90;;;;;;6097322;23;20202;-86
2020/12/21 14:27:54;;;;;;;8.32;7.57;;;10.10;99.90;;;;;;5913071;24;20186;-85
2020/12/21 14:30:35;;;;;;;8.70;7.78;;;10.00;99.90;;;;;;5928343;23;20185;-85
2020/12/21 14:33:50;;;;;;;7.75;7.05;;;9.90;99.90;;;;;;6143566;23;20242;-85
2020/12/21 14:42:57;;;;;;;8.40;7.72;;;9.80;99.90;;;;;;5857635;24;20183;-86
2020/12/21 14:48:44;;;;;;;9.05;7.80;;;9.60;99.90;;;;;;6129333;23;20184;-84
2020/12/21 14:51:37;;;;;;;9.60;8.82;;;9.60;99.90;;;;;;6141804;23;20174;-86
2020/12/21 14:54:55;;;;;;;8.65;7.50;;;9.60;99.90;;;;;;6112716;23;20200;-85
2020/12/21 15:01:16;;;;;;;10.73;9.68;;;9.40;99.90;;;;;;6082013;23;20175;-85
2020/12/21 15:07:28;;;;;;;9.30;8.45;;;9.20;99.90;;;;;;5942110;24;20180;-86
2020/12/21 15:18:09;;;;;;;10.30;9.40;;;9.20;99.90;;;;;;5857957;24;20263;-86
2020/12/21 15:24:31;;;;;;;7.65;6.90;;;9.20;99.90;;;;;;5969659;23;20235;-86
2020/12/21 15:27:22;;;;;;;10.60;8.25;;;9.10;99.90;;;;;;6086420;23;20184;-86
2020/12/21 15:30:55;;;;;;;7.20;6.60;;;9.10;99.90;;;;;;6137009;23;20200;-86
2020/12/21 15:36:31;;;;;;;5.45;4.88;;;9.10;99.90;;;;;;6112802;23;20177;-85
2020/12/21 15:42:32;;;;;;;6.93;6.32;;;9.10;99.90;;;;;;6059933;23;20259;-85
2020/12/21 15:49:09;;;;;;;6.90;6.30;;;9.10;99.90;;;;;;6128372;23;20251;-85
2020/12/21 15:52:13;;;;;;;5.30;4.88;;;9.10;99.90;;;;;;6136073;23;20199;-86
2020/12/21 16:14:51;;;;;;;;;;;;;;;;;;;;;
2020/12/21 22:03:10;;;;;;;;;;;;;;;;;;;;;
